Time;durP1;ratioP1;P1;durP2;ratioP2;P2;SDS_P1;SDS_P2;PMS_P1;PMS_P2;Temp;Humidity;BMP_temperature;BMP_pressure;BME280_temperature;BME280_humidity;BME280_pressure;Samples;Min_cycle;Max_cycle;Signal;HPM_P1;HPM_P2
2022/10/05 00:02:20;;;;;;;6.47;2.80;;;13.10;99.90;;;;;;5129225;27;20202;-72
2022/10/05 00:04:48;;;;;;;2.90;2.70;;;13.00;99.90;;;;;;5129249;27;20209;-72
2022/10/05 00:07:17;;;;;;;5.97;2.83;;;13.10;99.90;;;;;;5124528;27;20223;-72
2022/10/05 00:09:45;;;;;;;5.40;2.93;;;12.90;99.90;;;;;;5108529;28;20688;-73
2022/10/05 00:12:17;;;;;;;4.47;2.77;;;13.00;99.90;;;;;;5108958;28;20206;-73
2022/10/05 00:14:45;;;;;;;3.20;2.60;;;13.00;99.90;;;;;;5108629;28;20238;-73
2022/10/05 00:17:17;;;;;;;6.27;2.70;;;13.00;99.90;;;;;;5108932;28;20198;-73
2022/10/05 00:19:45;;;;;;;2.63;2.43;;;13.10;99.90;;;;;;5114175;27;20201;-73
2022/10/05 00:22:16;;;;;;;4.23;2.70;;;13.00;99.90;;;;;;5116927;27;20205;-73
2022/10/05 00:24:43;;;;;;;2.73;2.37;;;13.00;99.90;;;;;;5108704;28;20190;-73
2022/10/05 00:27:18;;;;;;;4.70;2.80;;;13.00;99.90;;;;;;5108667;28;20205;-73
2022/10/05 00:29:45;;;;;;;5.07;2.90;;;12.90;99.90;;;;;;5108598;28;20197;-73
2022/10/05 00:32:12;;;;;;;3.10;2.40;;;12.90;99.90;;;;;;5113854;27;20213;-73
2022/10/05 00:34:41;;;;;;;3.17;2.77;;;12.70;99.90;;;;;;5114209;27;20232;-74
2022/10/05 00:37:08;;;;;;;3.90;2.73;;;12.70;99.90;;;;;;5128859;27;21110;-75
2022/10/05 00:39:38;;;;;;;3.23;2.93;;;12.60;99.90;;;;;;5113647;27;20221;-74
2022/10/05 00:42:24;;;;;;;4.03;2.80;;;12.50;99.90;;;;;;5108210;28;20224;-73
2022/10/05 00:44:56;;;;;;;4.10;3.20;;;12.50;99.90;;;;;;5108602;28;20209;-74
2022/10/05 00:47:36;;;;;;;3.20;2.50;;;12.60;99.90;;;;;;5108351;28;20700;-74
2022/10/05 00:50:26;;;;;;;4.80;2.53;;;12.60;99.90;;;;;;5108170;28;20198;-74
2022/10/05 00:53:01;;;;;;;4.47;2.87;;;12.50;99.90;;;;;;5126388;27;20641;-73
2022/10/05 00:55:39;;;;;;;2.83;2.37;;;12.40;99.90;;;;;;5128885;27;20228;-73
2022/10/05 00:58:17;;;;;;;2.73;2.53;;;12.50;99.90;;;;;;5128681;27;20196;-73
2022/10/05 01:00:54;;;;;;;4.47;3.00;;;12.60;99.90;;;;;;5128995;27;20216;-73
2022/10/05 01:03:29;;;;;;;4.20;2.90;;;12.60;99.90;;;;;;5110719;27;20189;-74
2022/10/05 01:06:07;;;;;;;3.30;2.70;;;12.60;99.90;;;;;;5107860;28;20193;-75
2022/10/05 01:08:46;;;;;;;5.00;3.10;;;12.60;99.90;;;;;;5108115;28;20190;-74
2022/10/05 01:11:20;;;;;;;2.80;2.50;;;12.50;99.90;;;;;;5108145;28;20194;-72
2022/10/05 01:13:55;;;;;;;2.63;2.43;;;12.50;99.90;;;;;;5108835;28;20240;-72
2022/10/05 01:16:29;;;;;;;2.80;2.60;;;12.40;99.90;;;;;;5116879;28;20688;-72
2022/10/05 01:19:04;;;;;;;3.10;2.77;;;12.50;99.90;;;;;;5128407;28;20199;-72
2022/10/05 01:21:39;;;;;;;3.40;2.73;;;12.50;99.90;;;;;;5122886;28;20197;-73
2022/10/05 01:24:24;;;;;;;4.90;2.50;;;12.60;99.90;;;;;;5128377;28;20193;-73
2022/10/05 01:27:07;;;;;;;3.10;2.60;;;12.70;99.90;;;;;;5127033;28;20190;-72
2022/10/05 01:29:40;;;;;;;4.80;2.80;;;12.70;99.90;;;;;;5107868;28;20609;-73
2022/10/05 01:32:15;;;;;;;2.37;2.13;;;12.60;99.90;;;;;;5121698;28;20189;-73
2022/10/05 01:34:48;;;;;;;4.33;2.67;;;12.60;99.90;;;;;;5122423;28;20612;-73
2022/10/05 01:37:22;;;;;;;4.37;2.67;;;12.60;99.90;;;;;;5107982;28;20198;-73
2022/10/05 01:39:56;;;;;;;4.10;2.60;;;12.60;99.90;;;;;;5107702;28;20190;-73
2022/10/05 01:42:39;;;;;;;2.90;2.70;;;12.70;99.90;;;;;;5107579;28;20197;-73
2022/10/05 01:45:14;;;;;;;3.67;3.03;;;12.60;99.90;;;;;;5107695;28;20272;-73
2022/10/05 01:47:44;;;;;;;2.80;2.60;;;12.60;99.90;;;;;;5107477;28;20194;-74
2022/10/05 01:50:23;;;;;;;3.40;2.57;;;12.60;99.90;;;;;;5107435;28;20202;-73
2022/10/05 01:52:59;;;;;;;4.80;2.80;;;12.60;99.90;;;;;;5125201;28;20585;-73
2022/10/05 01:55:34;;;;;;;3.53;2.47;;;12.60;99.90;;;;;;5127631;28;21009;-73
2022/10/05 01:58:09;;;;;;;3.40;2.70;;;12.50;99.90;;;;;;5127964;28;20198;-73
2022/10/05 02:00:45;;;;;;;3.97;2.80;;;12.50;99.90;;;;;;5128336;27;20196;-73
2022/10/05 02:03:18;;;;;;;3.13;2.90;;;12.50;99.90;;;;;;5124263;27;20288;-73
2022/10/05 02:05:51;;;;;;;2.73;2.53;;;12.50;99.90;;;;;;5111253;28;20190;-73
2022/10/05 02:08:24;;;;;;;3.23;2.90;;;12.50;99.90;;;;;;5111309;28;20198;-73
2022/10/05 02:10:59;;;;;;;5.10;2.60;;;12.50;99.90;;;;;;5110925;28;20210;-72
2022/10/05 02:13:31;;;;;;;4.17;2.70;;;12.50;99.90;;;;;;5126657;27;20247;-72
2022/10/05 02:16:03;;;;;;;2.90;2.70;;;12.60;99.90;;;;;;5131753;27;20217;-72
2022/10/05 02:18:33;;;;;;;5.07;2.67;;;12.60;99.90;;;;;;5129692;27;20214;-72
2022/10/05 02:21:02;;;;;;;3.23;2.63;;;12.60;99.90;;;;;;5110722;28;20217;-72
2022/10/05 02:23:34;;;;;;;3.30;2.90;;;12.60;99.90;;;;;;5115070;27;20204;-70
2022/10/05 02:26:01;;;;;;;5.10;2.60;;;12.50;99.90;;;;;;5130921;27;20532;-71
2022/10/05 02:28:34;;;;;;;4.43;2.80;;;12.50;99.90;;;;;;5128619;27;20706;-71
2022/10/05 02:31:08;;;;;;;3.00;2.37;;;12.50;99.90;;;;;;5114880;27;20206;-71
2022/10/05 02:33:35;;;;;;;4.07;2.60;;;12.50;99.90;;;;;;5111147;27;20205;-71
2022/10/05 02:36:11;;;;;;;3.67;2.33;;;12.50;99.90;;;;;;5111342;27;20272;-71
2022/10/05 02:38:45;;;;;;;2.67;2.47;;;12.50;99.90;;;;;;5112730;27;20185;-71
2022/10/05 02:41:20;;;;;;;2.83;2.63;;;12.50;99.90;;;;;;5128928;27;20197;-70
2022/10/05 02:43:58;;;;;;;3.80;3.23;;;12.50;99.90;;;;;;5129111;27;20216;-70
2022/10/05 02:46:35;;;;;;;4.00;3.00;;;12.40;99.90;;;;;;5129494;27;20200;-71
2022/10/05 02:49:12;;;;;;;4.07;2.43;;;12.50;99.90;;;;;;5121526;27;20599;-71
2022/10/05 02:51:46;;;;;;;6.07;2.67;;;12.50;99.90;;;;;;5108933;28;20430;-70
2022/10/05 02:54:26;;;;;;;3.93;2.60;;;12.40;99.90;;;;;;5108767;28;20641;-72
2022/10/05 02:57:03;;;;;;;2.90;2.47;;;12.40;99.90;;;;;;5108425;28;20709;-70
2022/10/05 02:59:36;;;;;;;4.40;2.73;;;12.40;99.90;;;;;;5115988;27;20201;-71
2022/10/05 03:02:12;;;;;;;3.10;2.90;;;12.40;99.90;;;;;;5128687;27;20193;-70
2022/10/05 03:04:42;;;;;;;3.10;2.80;;;12.40;99.90;;;;;;5123132;27;20297;-71
2022/10/05 03:07:15;;;;;;;3.27;2.53;;;12.40;99.90;;;;;;5109857;28;21014;-71
2022/10/05 03:09:49;;;;;;;3.13;2.80;;;12.40;99.90;;;;;;5124849;27;20201;-71
2022/10/05 03:12:29;;;;;;;2.50;2.30;;;12.40;99.90;;;;;;5130096;27;20192;-71
2022/10/05 03:15:03;;;;;;;2.73;2.53;;;12.40;99.90;;;;;;5129810;27;20248;-71
2022/10/05 03:17:37;;;;;;;4.40;2.83;;;12.40;99.90;;;;;;5130445;27;20224;-71
2022/10/05 03:20:18;;;;;;;2.60;2.40;;;12.40;99.90;;;;;;5130671;27;20212;-71
2022/10/05 03:22:49;;;;;;;2.93;2.50;;;12.40;99.90;;;;;;5113122;27;20216;-71
2022/10/05 03:25:47;;;;;;;4.10;2.60;;;12.40;99.90;;;;;;5109621;28;20194;-71
2022/10/05 03:28:19;;;;;;;2.73;2.53;;;12.40;99.90;;;;;;5122843;27;20215;-71
2022/10/05 03:30:52;;;;;;;2.93;2.73;;;12.40;99.90;;;;;;5129995;27;20193;-71
2022/10/05 03:33:29;;;;;;;5.70;3.00;;;12.50;99.90;;;;;;5129915;27;20193;-71
2022/10/05 03:36:03;;;;;;;4.23;2.50;;;12.50;99.90;;;;;;5129461;27;20789;-71
2022/10/05 03:38:38;;;;;;;4.03;2.87;;;12.50;99.90;;;;;;5130120;27;20208;-71
2022/10/05 03:41:20;;;;;;;3.30;2.40;;;12.50;99.90;;;;;;5129663;27;20193;-71
2022/10/05 03:44:07;;;;;;;5.20;2.90;;;12.60;99.90;;;;;;5129954;27;20196;-72
2022/10/05 03:46:47;;;;;;;3.80;2.90;;;12.60;99.90;;;;;;5126433;27;20212;-71
2022/10/05 03:49:24;;;;;;;2.80;2.53;;;12.60;99.90;;;;;;5119990;27;20198;-71
2022/10/05 03:51:58;;;;;;;3.57;3.10;;;12.60;99.90;;;;;;5108709;28;20225;-71
2022/10/05 03:54:30;;;;;;;3.67;2.40;;;12.70;99.90;;;;;;5109103;28;20196;-71
2022/10/05 03:57:03;;;;;;;3.23;2.90;;;12.70;99.90;;;;;;5108600;28;20696;-71
2022/10/05 03:59:34;;;;;;;3.23;2.90;;;12.70;99.90;;;;;;5108768;28;20560;-72
2022/10/05 04:02:04;;;;;;;2.80;2.60;;;12.70;99.90;;;;;;5108808;28;20198;-71
2022/10/05 04:04:37;;;;;;;4.73;2.67;;;12.70;99.90;;;;;;5109207;28;20588;-71
2022/10/05 04:07:06;;;;;;;4.03;2.67;;;12.70;99.90;;;;;;5120954;27;20202;-71
2022/10/05 04:09:39;;;;;;;4.13;2.93;;;12.70;99.90;;;;;;5129235;27;20209;-71
2022/10/05 04:12:16;;;;;;;2.63;2.50;;;12.70;99.90;;;;;;5128931;27;20197;-71
2022/10/05 04:14:48;;;;;;;4.17;2.60;;;12.60;99.90;;;;;;5128814;27;20237;-71
2022/10/05 04:17:18;;;;;;;3.87;2.60;;;12.70;99.90;;;;;;5114479;27;20283;-71
2022/10/05 04:19:56;;;;;;;4.00;2.80;;;12.70;99.90;;;;;;5108540;28;20186;-71
2022/10/05 04:22:26;;;;;;;3.77;2.70;;;12.60;99.90;;;;;;5110054;28;20208;-72
2022/10/05 04:24:58;;;;;;;2.97;2.73;;;12.60;99.90;;;;;;5111516;27;20218;-71
2022/10/05 04:27:31;;;;;;;3.27;2.97;;;12.60;99.90;;;;;;5108251;28;20197;-71
2022/10/05 04:30:06;;;;;;;5.67;2.77;;;12.60;99.90;;;;;;5108297;28;20633;-71
2022/10/05 04:32:38;;;;;;;3.30;2.73;;;12.60;99.90;;;;;;5108628;28;20190;-71
2022/10/05 04:35:29;;;;;;;6.33;2.90;;;12.60;99.90;;;;;;5118401;27;20520;-71
2022/10/05 04:38:06;;;;;;;3.60;2.60;;;12.60;99.90;;;;;;5128891;27;20213;-71
2022/10/05 04:40:46;;;;;;;3.97;3.30;;;12.60;99.90;;;;;;5128528;27;20648;-71
2022/10/05 04:43:18;;;;;;;3.77;2.70;;;12.60;99.90;;;;;;5128713;27;20196;-71
2022/10/05 04:46:15;;;;;;;2.77;2.50;;;12.60;99.90;;;;;;5128604;27;20189;-71
2022/10/05 04:48:56;;;;;;;4.60;2.50;;;12.60;99.90;;;;;;5121832;27;20202;-71
2022/10/05 04:51:36;;;;;;;3.30;2.90;;;12.70;99.90;;;;;;5108154;28;20234;-71
2022/10/05 04:54:15;;;;;;;2.87;2.57;;;12.60;99.90;;;;;;5108301;28;20664;-71
2022/10/05 04:56:47;;;;;;;3.63;2.50;;;12.60;99.90;;;;;;5108319;28;20232;-71
2022/10/05 04:59:44;;;;;;;5.07;2.70;;;12.60;99.90;;;;;;5108387;28;20194;-71
2022/10/05 05:02:20;;;;;;;4.03;2.60;;;12.60;99.90;;;;;;5088860;27;20216;-71
2022/10/05 05:05:21;;;;;;;6.57;3.00;;;12.60;99.90;;;;;;5125398;27;20664;-71
2022/10/05 05:07:54;;;;;;;3.07;2.77;;;12.60;99.90;;;;;;5128191;27;20640;-71
2022/10/05 05:11:02;;;;;;;2.80;2.53;;;12.60;99.90;;;;;;5128535;27;20205;-71
2022/10/05 05:13:47;;;;;;;2.77;2.50;;;12.60;99.90;;;;;;5113671;28;20237;-71
2022/10/05 05:16:23;;;;;;;5.67;2.50;;;12.60;99.90;;;;;;5107798;28;20221;-72
2022/10/05 05:19:04;;;;;;;2.77;2.53;;;12.60;99.90;;;;;;5107856;28;20198;-71
2022/10/05 05:21:42;;;;;;;3.10;2.90;;;12.60;99.90;;;;;;5107649;28;20206;-71
2022/10/05 05:24:19;;;;;;;3.70;3.13;;;12.60;99.90;;;;;;5107520;28;20650;-71
2022/10/05 05:27:06;;;;;;;5.03;3.10;;;12.60;99.90;;;;;;5107111;28;20190;-71
2022/10/05 05:29:43;;;;;;;4.37;2.67;;;12.60;99.90;;;;;;5107758;28;20201;-71
2022/10/05 05:32:18;;;;;;;4.53;2.90;;;12.60;99.90;;;;;;5107595;28;20201;-71
2022/10/05 05:34:57;;;;;;;3.70;2.80;;;12.60;99.90;;;;;;5115005;27;20205;-71
2022/10/05 05:37:32;;;;;;;3.87;2.40;;;12.60;99.90;;;;;;5132357;27;20221;-71
2022/10/05 05:40:07;;;;;;;5.37;2.43;;;12.50;99.90;;;;;;5132480;27;20708;-71
2022/10/05 05:42:42;;;;;;;4.17;2.40;;;12.50;99.90;;;;;;5131965;27;20643;-71
2022/10/05 05:45:17;;;;;;;4.73;3.00;;;12.50;99.90;;;;;;5132354;27;20193;-71
2022/10/05 05:47:50;;;;;;;5.00;2.57;;;12.50;99.90;;;;;;5132381;27;20317;-71
2022/10/05 05:50:42;;;;;;;3.13;2.60;;;12.50;99.90;;;;;;5112828;27;20595;-71
2022/10/05 05:53:15;;;;;;;4.43;2.70;;;12.50;99.90;;;;;;5111068;28;20584;-71
2022/10/05 05:55:47;;;;;;;4.33;2.90;;;12.50;99.90;;;;;;5111113;28;20218;-71
2022/10/05 05:58:20;;;;;;;3.80;2.63;;;12.50;99.90;;;;;;5125290;27;20212;-71
2022/10/05 06:00:51;;;;;;;4.00;3.00;;;12.50;99.90;;;;;;5132012;27;20197;-71
2022/10/05 06:03:23;;;;;;;3.50;3.20;;;12.50;99.90;;;;;;5131901;27;20200;-71
2022/10/05 06:05:55;;;;;;;3.03;2.70;;;12.60;99.90;;;;;;5131585;27;20216;-71
2022/10/05 06:08:29;;;;;;;4.40;3.20;;;12.50;99.90;;;;;;5128483;27;20206;-71
2022/10/05 06:11:01;;;;;;;2.90;2.70;;;12.60;99.90;;;;;;5111027;28;20193;-71
2022/10/05 06:13:33;;;;;;;6.13;3.20;;;12.50;99.90;;;;;;5110969;28;20268;-71
2022/10/05 06:16:08;;;;;;;4.83;3.60;;;12.50;99.90;;;;;;5116204;27;20237;-71
2022/10/05 06:18:37;;;;;;;3.77;2.90;;;12.50;99.90;;;;;;5110723;28;20190;-71
2022/10/05 06:21:12;;;;;;;3.30;3.00;;;12.50;99.90;;;;;;5110815;28;20205;-71
2022/10/05 06:23:45;;;;;;;4.10;3.30;;;12.60;99.90;;;;;;5110738;28;20197;-71
2022/10/05 06:26:24;;;;;;;4.43;3.03;;;12.60;99.90;;;;;;5110652;28;20553;-71
2022/10/05 06:28:56;;;;;;;5.13;3.27;;;12.60;99.90;;;;;;5110662;28;20198;-71
2022/10/05 06:31:35;;;;;;;4.73;3.20;;;12.60;99.90;;;;;;5111065;28;20198;-71
2022/10/05 06:34:16;;;;;;;3.97;3.53;;;12.60;99.90;;;;;;5111721;27;20190;-71
2022/10/05 06:36:48;;;;;;;3.90;3.60;;;12.60;99.90;;;;;;5131105;27;20637;-71
2022/10/05 06:39:46;;;;;;;4.03;3.63;;;12.70;99.90;;;;;;5130997;27;20221;-71
2022/10/05 06:42:35;;;;;;;7.03;3.23;;;12.70;99.90;;;;;;5109751;27;20216;-71
2022/10/05 06:45:09;;;;;;;5.17;3.47;;;12.70;99.90;;;;;;5130882;27;20229;-71
2022/10/05 06:47:44;;;;;;;3.10;2.90;;;12.70;99.90;;;;;;5130911;27;20221;-71
2022/10/05 06:50:21;;;;;;;7.97;3.33;;;12.70;99.90;;;;;;5112948;27;20190;-71
2022/10/05 06:53:02;;;;;;;8.20;3.37;;;12.70;99.90;;;;;;5110273;28;20252;-71
2022/10/05 06:55:38;;;;;;;5.47;3.20;;;12.70;99.90;;;;;;5119135;27;20202;-71
2022/10/05 06:58:26;;;;;;;4.00;3.43;;;12.70;99.90;;;;;;5130887;27;20204;-71
2022/10/05 07:00:59;;;;;;;4.97;3.47;;;12.70;99.90;;;;;;5130717;27;20538;-71
2022/10/05 07:03:31;;;;;;;4.17;3.77;;;12.70;99.90;;;;;;5130668;27;20190;-71
2022/10/05 07:06:06;;;;;;;3.90;3.50;;;12.70;99.90;;;;;;5130418;27;20216;-71
2022/10/05 07:08:53;;;;;;;3.77;3.37;;;12.70;99.90;;;;;;5130850;27;20186;-71
2022/10/05 07:11:32;;;;;;;6.87;3.60;;;12.80;99.90;;;;;;5130469;27;20193;-71
2022/10/05 07:14:13;;;;;;;4.53;3.43;;;12.80;99.90;;;;;;5109630;27;20606;-71
2022/10/05 07:17:02;;;;;;;3.63;3.23;;;12.80;99.90;;;;;;5109836;28;20218;-71
2022/10/05 07:19:37;;;;;;;4.10;3.43;;;12.80;99.90;;;;;;5109573;28;20198;-71
2022/10/05 07:22:27;;;;;;;4.20;3.27;;;12.80;99.90;;;;;;5109561;28;20209;-71
2022/10/05 07:25:01;;;;;;;3.47;3.23;;;12.80;99.90;;;;;;5109223;28;20909;-71
2022/10/05 07:27:32;;;;;;;8.00;3.07;;;12.90;99.90;;;;;;5109244;28;20194;-71
2022/10/05 07:30:03;;;;;;;6.30;3.20;;;12.90;99.90;;;;;;5109362;28;20190;-71
2022/10/05 07:32:35;;;;;;;3.13;2.93;;;12.90;99.90;;;;;;5109681;28;20191;-71
2022/10/05 07:37:52;;;;;;;4.07;3.13;;;13.00;99.90;;;;;;5118552;27;20243;-71
2022/10/05 07:37:58;;;;;;;3.00;2.80;;;13.10;99.90;;;;;;5129707;27;20319;-71
2022/10/05 07:40:36;;;;;;;3.40;3.20;;;13.10;99.90;;;;;;5129647;27;20532;-71
2022/10/05 07:43:14;;;;;;;4.40;3.17;;;13.20;99.90;;;;;;5129642;27;20801;-71
2022/10/05 07:45:46;;;;;;;4.00;3.10;;;13.20;99.90;;;;;;5129708;27;20205;-71
2022/10/05 07:48:18;;;;;;;3.77;2.97;;;13.30;99.90;;;;;;5128493;27;20567;-71
2022/10/05 07:50:56;;;;;;;5.97;2.60;;;13.30;99.90;;;;;;5122460;27;20205;-71
2022/10/05 07:53:27;;;;;;;2.97;2.60;;;13.30;99.90;;;;;;5108710;28;20190;-72
2022/10/05 07:55:57;;;;;;;4.07;2.60;;;13.40;99.90;;;;;;5108815;28;20210;-71
2022/10/05 07:58:28;;;;;;;4.07;2.97;;;13.40;99.90;;;;;;5108130;28;20206;-71
2022/10/05 08:01:05;;;;;;;6.00;2.50;;;13.50;99.90;;;;;;5112413;27;20201;-72
2022/10/05 08:03:42;;;;;;;3.03;2.83;;;13.50;99.90;;;;;;5129009;27;20201;-71
2022/10/05 08:06:14;;;;;;;2.90;2.70;;;13.60;99.90;;;;;;5129056;27;20196;-71
2022/10/05 08:08:49;;;;;;;3.20;2.90;;;13.60;99.90;;;;;;5121929;27;20751;-71
2022/10/05 08:11:18;;;;;;;4.27;2.53;;;13.60;99.90;;;;;;5108615;28;20189;-71
2022/10/05 08:13:51;;;;;;;3.80;2.60;;;13.70;99.90;;;;;;5108029;28;20241;-71
2022/10/05 08:16:20;;;;;;;2.67;2.47;;;13.70;99.90;;;;;;5108733;28;20194;-71
2022/10/05 08:18:54;;;;;;;5.83;2.80;;;13.80;99.90;;;;;;5108498;28;20297;-71
2022/10/05 08:21:27;;;;;;;4.93;2.50;;;13.80;99.90;;;;;;5108415;28;20679;-71
2022/10/05 08:23:57;;;;;;;3.33;2.63;;;13.80;99.90;;;;;;5108607;28;20191;-71
2022/10/05 08:26:31;;;;;;;5.33;3.10;;;13.90;99.90;;;;;;5108124;28;20190;-71
2022/10/05 08:29:05;;;;;;;3.53;2.73;;;13.90;99.90;;;;;;5108618;28;20207;-71
2022/10/05 08:31:36;;;;;;;2.47;2.27;;;14.00;99.90;;;;;;5108637;28;20205;-71
2022/10/05 08:34:18;;;;;;;3.80;2.40;;;14.10;99.90;;;;;;5109412;28;20194;-71
2022/10/05 08:36:58;;;;;;;6.07;2.70;;;14.20;99.90;;;;;;5128854;27;20254;-71
2022/10/05 08:39:29;;;;;;;3.03;2.40;;;14.20;99.90;;;;;;5129026;27;20250;-71
2022/10/05 08:42:23;;;;;;;6.03;2.70;;;14.30;99.90;;;;;;5128154;27;20640;-71
2022/10/05 08:45:26;;;;;;;3.37;2.40;;;14.30;99.90;;;;;;5128557;27;20220;-71
2022/10/05 08:48:26;;;;;;;4.57;2.80;;;14.30;99.90;;;;;;5116071;27;20208;-71
2022/10/05 08:51:15;;;;;;;2.97;2.47;;;14.40;99.90;;;;;;5108936;27;20205;-71
2022/10/05 08:54:17;;;;;;;2.40;2.20;;;14.40;99.90;;;;;;5128652;27;20201;-71
2022/10/05 08:56:53;;;;;;;3.00;2.57;;;14.50;99.90;;;;;;5129099;27;20234;-71
2022/10/05 08:59:40;;;;;;;2.90;2.40;;;14.60;99.90;;;;;;5108393;28;20194;-71
2022/10/05 09:02:20;;;;;;;3.63;2.53;;;14.70;99.90;;;;;;5107877;28;20711;-71
2022/10/05 09:05:11;;;;;;;2.90;2.50;;;14.70;99.90;;;;;;5113305;27;20656;-71
2022/10/05 09:08:03;;;;;;;5.33;2.70;;;14.80;99.90;;;;;;5108531;28;20203;-71
2022/10/05 09:10:55;;;;;;;4.57;2.53;;;14.80;99.90;;;;;;5107659;28;20615;-71
2022/10/05 09:13:48;;;;;;;3.13;2.50;;;14.90;99.90;;;;;;5107831;28;20255;-72
2022/10/05 09:16:40;;;;;;;2.50;2.30;;;14.90;99.90;;;;;;5107665;28;20198;-71
2022/10/05 09:19:52;;;;;;;3.10;2.37;;;15.00;99.90;;;;;;5107958;28;20198;-71
2022/10/05 09:22:33;;;;;;;3.60;2.80;;;15.00;99.90;;;;;;5107814;28;20217;-71
2022/10/05 09:25:14;;;;;;;5.40;2.60;;;15.10;99.90;;;;;;5107485;28;20200;-71
2022/10/05 09:27:49;;;;;;;3.87;3.13;;;15.10;99.90;;;;;;5107462;28;20649;-71
2022/10/05 09:30:34;;;;;;;6.20;2.70;;;15.20;99.90;;;;;;5107661;28;20204;-71
2022/10/05 09:33:43;;;;;;;3.70;2.73;;;15.20;99.90;;;;;;5107632;28;20194;-71
2022/10/05 09:36:31;;;;;;;4.00;2.60;;;15.20;99.90;;;;;;5126586;28;20660;-71
2022/10/05 09:39:28;;;;;;;3.50;2.60;;;15.30;99.90;;;;;;5128113;28;20396;-71
2022/10/05 09:42:27;;;;;;;2.77;2.57;;;15.30;99.90;;;;;;5127384;28;20671;-71
2022/10/05 09:45:23;;;;;;;3.63;3.13;;;15.40;99.90;;;;;;5127889;28;20573;-71
2022/10/05 09:48:26;;;;;;;4.37;2.80;;;15.50;99.90;;;;;;5128053;28;20190;-71
2022/10/05 09:51:27;;;;;;;3.10;2.80;;;15.60;99.90;;;;;;5107123;28;20311;-71
2022/10/05 09:54:19;;;;;;;2.77;2.57;;;15.60;99.90;;;;;;5114162;28;20208;-71
2022/10/05 09:57:16;;;;;;;3.10;2.33;;;15.70;99.90;;;;;;5110164;28;20660;-71
2022/10/05 10:00:14;;;;;;;4.20;2.70;;;15.60;99.90;;;;;;5120629;28;20213;-71
2022/10/05 10:03:03;;;;;;;4.53;2.80;;;15.60;99.90;;;;;;5109916;28;20213;-71
2022/10/05 10:06:09;;;;;;;4.17;2.67;;;15.60;99.90;;;;;;5127644;28;20247;-71
2022/10/05 10:08:44;;;;;;;2.57;2.37;;;15.60;99.90;;;;;;5124414;28;20664;-71
2022/10/05 10:11:41;;;;;;;3.73;2.87;;;15.70;99.90;;;;;;5127316;28;20189;-71
2022/10/05 10:14:41;;;;;;;5.50;2.83;;;15.70;99.90;;;;;;5127411;28;20252;-71
2022/10/05 10:17:31;;;;;;;6.27;2.80;;;15.70;99.90;;;;;;5127679;28;20230;-71
2022/10/05 10:20:24;;;;;;;2.93;2.53;;;15.80;99.90;;;;;;5127530;27;20193;-71
2022/10/05 10:23:30;;;;;;;5.63;2.90;;;15.80;99.90;;;;;;5113529;27;20209;-71
2022/10/05 10:26:42;;;;;;;4.10;2.73;;;15.90;99.90;;;;;;5110503;28;20186;-71
2022/10/05 10:29:28;;;;;;;5.57;2.80;;;16.00;99.90;;;;;;5111124;28;20217;-71
2022/10/05 10:32:05;;;;;;;3.47;2.57;;;16.00;99.90;;;;;;5110824;28;20236;-71
2022/10/05 10:35:06;;;;;;;3.70;2.30;;;16.10;99.90;;;;;;5115877;27;20213;-71
2022/10/05 10:37:40;;;;;;;3.53;2.53;;;16.10;99.90;;;;;;5131341;27;20217;-71
2022/10/05 10:40:24;;;;;;;2.83;2.63;;;16.20;99.90;;;;;;5125077;27;20210;-71
2022/10/05 10:43:16;;;;;;;4.63;2.93;;;16.20;99.90;;;;;;5110063;28;20218;-71
2022/10/05 10:45:50;;;;;;;2.67;2.47;;;16.20;99.90;;;;;;5110112;28;20734;-71
2022/10/05 10:48:48;;;;;;;4.73;2.40;;;16.30;99.90;;;;;;5110023;28;20194;-71
2022/10/05 10:51:25;;;;;;;2.87;2.50;;;16.40;99.90;;;;;;5123298;27;20252;-71
2022/10/05 10:54:35;;;;;;;4.90;2.80;;;16.50;99.90;;;;;;5110422;28;20194;-71
2022/10/05 10:57:09;;;;;;;3.87;2.67;;;16.60;99.90;;;;;;5115404;27;20206;-71
2022/10/05 11:00:03;;;;;;;2.90;2.40;;;16.80;99.90;;;;;;5110429;28;20190;-71
2022/10/05 11:03:01;;;;;;;3.77;2.67;;;16.90;99.90;;;;;;5112941;27;20201;-71
2022/10/05 11:05:38;;;;;;;5.53;2.60;;;17.10;99.90;;;;;;5125629;27;20306;-71
2022/10/05 11:08:31;;;;;;;3.47;2.80;;;17.30;99.90;;;;;;5113396;27;20198;-71
2022/10/05 11:11:19;;;;;;;4.00;2.70;;;17.50;99.90;;;;;;5128976;27;20197;-71
2022/10/05 11:14:10;;;;;;;2.93;2.47;;;17.60;99.90;;;;;;5129187;27;20240;-71
2022/10/05 11:17:20;;;;;;;2.67;2.47;;;17.70;99.90;;;;;;5127843;27;20205;-71
2022/10/05 11:20:00;;;;;;;4.33;2.90;;;17.70;99.90;;;;;;5092629;27;20589;-71
2022/10/05 11:22:54;;;;;;;5.77;3.40;;;17.70;99.90;;;;;;5120929;27;20214;-70
2022/10/05 11:25:48;;;;;;;3.60;3.30;;;17.70;99.90;;;;;;5120947;27;20217;-70
2022/10/05 11:28:50;;;;;;;3.30;3.00;;;17.70;99.90;;;;;;5129613;27;20213;-70
2022/10/05 11:31:43;;;;;;;3.20;2.97;;;17.80;99.90;;;;;;5128327;27;20204;-71
2022/10/05 11:34:49;;;;;;;3.17;2.57;;;17.70;99.90;;;;;;5124314;27;20198;-71
2022/10/05 11:37:47;;;;;;;3.97;3.20;;;17.70;99.90;;;;;;5125255;27;20213;-71
2022/10/05 11:40:50;;;;;;;4.57;2.30;;;17.60;99.90;;;;;;5118172;27;20206;-71
2022/10/05 11:43:40;;;;;;;3.47;2.43;;;17.50;99.90;;;;;;5124346;27;20197;-71
2022/10/05 11:46:13;;;;;;;4.27;2.40;;;17.50;99.90;;;;;;5121308;27;20875;-71
2022/10/05 11:48:52;;;;;;;3.47;2.43;;;17.40;99.90;;;;;;5118890;27;20555;-71
2022/10/05 11:51:35;;;;;;;3.13;2.90;;;17.40;99.90;;;;;;5128470;27;20235;-71
2022/10/05 11:54:16;;;;;;;5.33;2.57;;;17.40;99.90;;;;;;5128480;27;20209;-71
2022/10/05 11:56:49;;;;;;;6.10;2.77;;;17.50;99.90;;;;;;5127974;27;20238;-71
2022/10/05 11:59:20;;;;;;;2.90;2.67;;;17.60;99.90;;;;;;5127922;27;20229;-71
2022/10/05 12:01:55;;;;;;;3.07;2.57;;;17.80;99.90;;;;;;5119936;27;20212;-71
2022/10/05 12:04:32;;;;;;;2.90;2.53;;;18.00;99.90;;;;;;5127839;27;20204;-71
2022/10/05 12:07:09;;;;;;;3.17;2.47;;;18.20;99.90;;;;;;5122084;27;20213;-71
2022/10/05 12:13:04;;;;;;;7.83;2.67;;;18.70;99.90;;;;;;5123090;27;20339;-71
2022/10/05 12:15:36;;;;;;;3.73;2.37;;;19.10;99.90;;;;;;5126453;27;20298;-71
2022/10/05 12:18:12;;;;;;;2.40;2.27;;;19.30;99.90;;;;;;5117891;27;20214;-71
2022/10/05 12:20:45;;;;;;;3.97;2.30;;;19.60;99.90;;;;;;5121765;27;20242;-71
2022/10/05 12:23:19;;;;;;;4.03;2.60;;;19.90;99.90;;;;;;5122544;27;20290;-72
2022/10/05 12:25:52;;;;;;;2.37;2.17;;;20.00;99.90;;;;;;5128249;27;20205;-72
2022/10/05 12:28:27;;;;;;;2.43;2.20;;;20.20;99.90;;;;;;5128255;27;20213;-72
2022/10/05 12:31:10;;;;;;;2.93;2.60;;;20.30;99.90;;;;;;5126853;27;20663;-72
2022/10/05 12:33:45;;;;;;;2.37;2.17;;;20.40;99.90;;;;;;5119891;27;20193;-72
2022/10/05 12:36:17;;;;;;;2.50;2.30;;;20.40;99.90;;;;;;5126034;27;20221;-72
2022/10/05 12:38:50;;;;;;;2.40;2.20;;;20.40;99.90;;;;;;5127927;27;20231;-72
2022/10/05 12:41:25;;;;;;;2.23;2.10;;;20.50;99.90;;;;;;5127174;27;20664;-72
2022/10/05 12:44:06;;;;;;;3.23;2.40;;;20.70;99.90;;;;;;5127316;27;20203;-72
2022/10/05 12:46:41;;;;;;;2.67;2.47;;;20.80;99.90;;;;;;5126236;27;20245;-72
2022/10/05 12:49:34;;;;;;;3.03;2.35;;;20.90;99.90;;;;;;5125447;27;20197;-72
2022/10/05 12:52:03;;;;;;;4.03;2.10;;;21.00;99.90;;;;;;5126173;27;20255;-72
2022/10/05 12:54:42;;;;;;;2.35;2.15;;;21.10;99.90;;;;;;5127653;27;20571;-72
2022/10/05 12:57:17;;;;;;;2.40;2.17;;;21.20;99.90;;;;;;5127336;27;20682;-72
2022/10/05 12:59:50;;;;;;;3.10;2.42;;;21.20;99.90;;;;;;5123266;27;20232;-71
2022/10/05 13:02:30;;;;;;;4.10;2.17;;;21.30;99.90;;;;;;5127217;27;20209;-71
2022/10/05 13:05:06;;;;;;;2.95;1.95;;;21.40;99.90;;;;;;5127464;27;20205;-72
2022/10/05 13:07:59;;;;;;;2.20;1.95;;;21.40;99.90;;;;;;5127679;27;20208;-72
2022/10/05 13:10:34;;;;;;;2.13;1.92;;;21.40;99.90;;;;;;5127084;27;20283;-72
2022/10/05 13:13:16;;;;;;;1.88;1.65;;;21.40;99.90;;;;;;5120478;27;20712;-72
2022/10/05 13:15:49;;;;;;;1.80;1.70;;;21.50;99.90;;;;;;5125961;27;20569;-72
2022/10/05 13:18:27;;;;;;;4.20;2.20;;;21.50;99.90;;;;;;5127194;28;20224;-72
2022/10/05 13:21:03;;;;;;;3.28;1.92;;;21.50;99.90;;;;;;5126839;28;20213;-72
2022/10/05 13:23:37;;;;;;;2.63;2.08;;;21.60;99.90;;;;;;5126961;28;20215;-72
2022/10/05 13:26:10;;;;;;;2.47;1.98;;;21.70;99.90;;;;;;5127161;28;20734;-72
2022/10/05 13:28:44;;;;;;;4.68;1.83;;;21.80;99.90;;;;;;5126334;28;20212;-72
2022/10/05 13:31:15;;;;;;;2.60;2.28;;;21.70;99.90;;;;;;5114159;28;20204;-72
2022/10/05 13:33:59;;;;;;;2.28;1.90;;;21.70;99.90;;;;;;5125772;28;20190;-72
2022/10/05 13:36:35;;;;;;;1.88;1.77;;;21.80;99.90;;;;;;5121533;28;20217;-72
2022/10/05 13:39:14;;;;;;;2.35;2.08;;;22.00;99.90;;;;;;5125119;28;20228;-72
2022/10/05 13:41:50;;;;;;;5.95;2.13;;;22.00;99.90;;;;;;5125472;28;20197;-72
2022/10/05 13:44:25;;;;;;;2.70;1.70;;;22.10;99.90;;;;;;5114606;28;20745;-72
2022/10/05 13:47:00;;;;;;;2.90;2.13;;;22.10;99.90;;;;;;5113024;28;20688;-72
2022/10/05 13:49:37;;;;;;;3.22;2.22;;;22.20;99.90;;;;;;5106079;28;20281;-72
2022/10/05 13:52:18;;;;;;;2.78;2.05;;;22.10;99.90;;;;;;5115969;28;20221;-72
2022/10/05 13:54:52;;;;;;;3.75;2.20;;;22.20;99.90;;;;;;5125075;27;20193;-72